Time;durP1;ratioP1;P1;durP2;ratioP2;P2;SDS_P1;SDS_P2;PMS_P1;PMS_P2;Temp;Humidity;BMP_temperature;BMP_pressure;BME280_temperature;BME280_humidity;BME280_pressure;Samples;Min_cycle;Max_cycle;Signal;HPM_P1;HPM_P2
2022/09/10 00:01:38;;;;;;;;;;;;;;;14.20;69.27;96282.84;10379960;28;96942;-58
2022/09/10 00:06:41;;;;;;;;;;;;;;;14.17;68.95;96286.59;10379655;28;96731;-58
2022/09/10 00:11:45;;;;;;;;;;;;;;;14.26;69.49;96274.28;10376039;28;97129;-58
2022/09/10 00:16:48;;;;;;;;;;;;;;;14.26;68.91;96284.81;10379462;28;96738;-58
2022/09/10 00:21:50;;;;;;;;;;;;;;;14.32;68.71;96275.44;10365908;28;96943;-58
2022/09/10 00:26:54;;;;;;;;;;;;;;;14.45;69.38;96253.84;10378895;28;96851;-58
2022/09/10 00:31:57;;;;;;;;;;;;;;;14.41;69.24;96270.97;10378557;28;96938;-58
2022/09/10 00:37:00;;;;;;;;;;;;;;;14.31;69.09;96264.09;10378580;28;96797;-58
2022/09/10 00:42:05;;;;;;;;;;;;;;;14.39;69.31;96257.19;10376534;28;98243;-59
2022/09/10 00:47:09;;;;;;;;;;;;;;;14.35;69.58;96249.63;10378538;28;96770;-58
2022/09/10 00:52:12;;;;;;;;;;;;;;;14.17;69.99;96260.34;10377396;28;96698;-58
2022/09/10 00:57:18;;;;;;;;;;;;;;;14.19;70.16;96252.28;10378043;28;97688;-58
2022/09/10 01:02:21;;;;;;;;;;;;;;;14.25;70.48;96241.09;10377925;28;96718;-58
2022/09/10 01:07:25;;;;;;;;;;;;;;;14.18;70.32;96250.66;10376974;28;96876;-58
2022/09/10 01:12:39;;;;;;;;;;;;;;;14.16;70.30;96257.91;10348487;28;96836;-58
2022/09/10 01:17:50;;;;;;;;;;;;;;;14.19;70.45;96257.53;10402669;28;96841;-58
2022/09/10 01:23:04;;;;;;;;;;;;;;;14.22;69.93;96253.78;10376690;28;96710;-58
2022/09/10 01:28:10;;;;;;;;;;;;;;;14.16;70.74;96250.84;10376370;28;97098;-58
2022/09/10 01:33:15;;;;;;;;;;;;;;;14.20;70.04;96238.19;10375429;28;97011;-59
2022/09/10 01:38:21;;;;;;;;;;;;;;;14.26;70.50;96240.13;10376546;28;96809;-58
2022/09/10 01:43:25;;;;;;;;;;;;;;;14.09;70.28;96252.50;10339384;28;96850;-58
2022/09/10 01:48:44;;;;;;;;;;;;;;;14.02;70.30;96237.56;10335590;28;96761;-58
2022/09/10 01:53:54;;;;;;;;;;;;;;;13.90;71.04;96237.94;10334736;28;96717;-58
2022/09/10 01:59:03;;;;;;;;;;;;;;;13.88;72.20;96229.44;10335330;28;97567;-58
2022/09/10 02:04:07;;;;;;;;;;;;;;;13.84;72.55;96241.22;10334407;28;96907;-58
2022/09/10 02:09:10;;;;;;;;;;;;;;;13.84;72.08;96227.28;10343556;28;97554;-58
2022/09/10 02:14:14;;;;;;;;;;;;;;;13.93;72.10;96223.66;10333883;28;96657;-58
2022/09/10 02:19:17;;;;;;;;;;;;;;;13.90;72.09;96224.00;10333811;28;98190;-57
2022/09/10 02:24:20;;;;;;;;;;;;;;;13.85;72.47;96226.31;10332836;28;96978;-58
2022/09/10 02:29:24;;;;;;;;;;;;;;;13.88;72.37;96229.44;10334083;28;98202;-58
2022/09/10 02:34:26;;;;;;;;;;;;;;;13.84;72.28;96235.97;10333413;28;97535;-58
2022/09/10 02:39:29;;;;;;;;;;;;;;;13.81;72.87;96239.78;10382402;28;96740;-58
2022/09/10 02:44:33;;;;;;;;;;;;;;;13.84;72.61;96235.97;10374247;28;96997;-58
2022/09/10 02:49:36;;;;;;;;;;;;;;;13.82;72.76;96235.34;10374370;28;96904;-58
2022/09/10 02:54:39;;;;;;;;;;;;;;;13.77;73.00;96235.00;10374308;28;97626;-58
2022/09/10 02:59:42;;;;;;;;;;;;;;;13.76;73.51;96228.16;10374722;28;97817;-57
2022/09/10 03:04:45;;;;;;;;;;;;;;;13.74;73.29;96222.22;10373409;28;96729;-58
2022/09/10 03:09:48;;;;;;;;;;;;;;;13.73;73.45;96218.78;10367998;28;98648;-58
2022/09/10 03:14:52;;;;;;;;;;;;;;;13.77;72.83;96222.69;10331454;28;96887;-58
2022/09/10 03:19:55;;;;;;;;;;;;;;;13.75;73.42;96226.50;10332317;28;96701;-58
2022/09/10 03:24:58;;;;;;;;;;;;;;;13.72;73.02;96229.44;10332875;28;96752;-58
2022/09/10 03:30:02;;;;;;;;;;;;;;;13.67;73.73;96231.75;10332766;28;96899;-58
2022/09/10 03:35:05;;;;;;;;;;;;;;;13.67;73.65;96223.88;10331674;28;96748;-58
2022/09/10 03:40:08;;;;;;;;;;;;;;;13.69;73.45;96225.38;10341751;28;96757;-58
2022/09/10 03:45:12;;;;;;;;;;;;;;;13.75;72.44;96227.31;10359338;28;98576;-58
2022/09/10 03:50:15;;;;;;;;;;;;;;;13.61;73.40;96223.56;10373468;28;96655;-58
2022/09/10 03:55:18;;;;;;;;;;;;;;;13.60;73.19;96216.69;10379450;28;96906;-58
2022/09/10 04:00:22;;;;;;;;;;;;;;;13.56;73.92;96199.63;10379362;28;96790;-58
2022/09/10 04:05:26;;;;;;;;;;;;;;;13.52;73.78;96194.88;10378849;28;96837;-58
2022/09/10 04:10:29;;;;;;;;;;;;;;;13.48;73.95;96199.66;10377571;28;96782;-58
2022/09/10 04:15:33;;;;;;;;;;;;;;;13.41;73.95;96206.53;10378629;28;96573;-58
2022/09/10 04:20:36;;;;;;;;;;;;;;;13.30;74.28;96202.44;10379088;28;97875;-58
2022/09/10 04:25:39;;;;;;;;;;;;;;;13.24;74.18;96205.75;10379106;28;96805;-58
2022/09/10 04:30:43;;;;;;;;;;;;;;;13.17;73.51;96197.72;10378323;28;96893;-59
2022/09/10 04:35:46;;;;;;;;;;;;;;;13.19;73.86;96208.03;10378748;28;96710;-58
2022/09/10 04:40:48;;;;;;;;;;;;;;;13.12;74.11;96202.63;10360364;28;96733;-58
2022/09/10 04:45:54;;;;;;;;;;;;;;;13.07;73.76;96210.19;10336596;28;96666;-58
2022/09/10 04:50:56;;;;;;;;;;;;;;;13.11;74.21;96216.72;10336716;28;97695;-58
2022/09/10 04:56:18;;;;;;;;;;;;;;;13.23;74.59;96218.03;10336373;28;97065;-58
2022/09/10 05:01:22;;;;;;;;;;;;;;;13.23;74.65;96212.78;10336521;28;96892;-57
2022/09/10 05:06:25;;;;;;;;;;;;;;;13.22;74.70;96219.03;10335446;28;96819;-59
2022/09/10 05:11:28;;;;;;;;;;;;;;;13.29;74.02;96219.19;10339973;28;96867;-58
2022/09/10 05:16:32;;;;;;;;;;;;;;;13.31;74.56;96211.97;10335654;28;96941;-58
2022/09/10 05:21:35;;;;;;;;;;;;;;;13.31;73.67;96200.63;10336014;28;97120;-58
2022/09/10 05:26:38;;;;;;;;;;;;;;;13.39;73.67;96213.75;10336310;28;96887;-58
2022/09/10 05:31:43;;;;;;;;;;;;;;;13.34;73.94;96226.53;10336047;28;96860;-58
2022/09/10 05:36:45;;;;;;;;;;;;;;;13.43;73.72;96212.47;10335232;28;96734;-58
2022/09/10 05:41:48;;;;;;;;;;;;;;;13.51;73.58;96230.78;10367545;28;96858;-58
2022/09/10 05:46:52;;;;;;;;;;;;;;;13.51;74.09;96225.53;10375452;28;97015;-59
2022/09/10 05:51:54;;;;;;;;;;;;;;;13.58;73.75;96226.50;10375919;28;96680;-58
2022/09/10 05:56:58;;;;;;;;;;;;;;;13.68;73.86;96241.28;10403415;28;96785;-58
2022/09/10 06:02:02;;;;;;;;;;;;;;;13.79;73.39;96243.53;10417251;27;96793;-58
2022/09/10 06:07:04;;;;;;;;;;;;;;;13.86;73.08;96252.38;10417447;27;96747;-57
2022/09/10 06:12:07;;;;;;;;;;;;;;;13.99;72.88;96268.44;10373110;28;96808;-58
2022/09/10 06:17:11;;;;;;;;;;;;;;;14.11;73.00;96261.03;10348703;28;96818;-58
2022/09/10 06:22:14;;;;;;;;;;;;;;;14.21;72.75;96258.22;10334644;28;96673;-58
2022/09/10 06:27:16;;;;;;;;;;;;;;;14.15;72.25;96254.44;10333263;28;96756;-58
2022/09/10 06:32:20;;;;;;;;;;;;;;;14.00;72.86;96261.38;10333613;28;97151;-58
2022/09/10 06:37:23;;;;;;;;;;;;;;;13.95;72.86;96277.66;10332670;28;96852;-58
2022/09/10 06:42:26;;;;;;;;;;;;;;;14.06;72.63;96273.03;10368382;28;96817;-59
2022/09/10 06:47:30;;;;;;;;;;;;;;;14.17;72.44;96273.47;10374194;28;96701;-58
2022/09/10 06:52:53;;;;;;;;;;;;;;;14.29;72.38;96268.66;10374163;28;96736;-58
2022/09/10 06:57:55;;;;;;;;;;;;;;;14.47;72.18;96276.38;10374015;28;96834;-58
2022/09/10 07:02:59;;;;;;;;;;;;;;;14.65;71.90;96281.38;10374746;28;96667;-58
2022/09/10 07:08:03;;;;;;;;;;;;;;;14.89;71.11;96277.78;10373564;28;96763;-58
2022/09/10 07:13:07;;;;;;;;;;;;;;;15.14;70.59;96272.34;10332597;28;96818;-58
2022/09/10 07:18:13;;;;;;;;;;;;;;;15.28;70.41;96279.47;10332937;28;96816;-58
2022/09/10 07:23:17;;;;;;;;;;;;;;;15.51;69.92;96286.53;10384481;28;96711;-58
2022/09/10 07:28:20;;;;;;;;;;;;;;;15.62;69.41;96285.34;10418614;27;97074;-58
2022/09/10 07:33:24;;;;;;;;;;;;;;;15.70;69.00;96298.44;10422275;28;97886;-59
2022/09/10 07:38:27;;;;;;;;;;;;;;;15.91;68.90;96304.84;10415333;27;96724;-58
2022/09/10 07:43:30;;;;;;;;;;;;;;;16.08;68.53;96295.75;10380007;28;97006;-58
2022/09/10 07:48:34;;;;;;;;;;;;;;;16.06;68.60;96298.56;10380086;28;96601;-58
2022/09/10 07:53:37;;;;;;;;;;;;;;;16.02;68.60;96313.13;10379133;28;97034;-58
2022/09/10 07:58:39;;;;;;;;;;;;;;;16.01;68.43;96313.28;10379717;28;96882;-58
2022/09/10 08:03:44;;;;;;;;;;;;;;;16.34;67.89;96299.78;10379982;28;97131;-58
2022/09/10 08:08:46;;;;;;;;;;;;;;;16.60;66.92;96294.84;10377800;28;96801;-57
2022/09/10 08:13:50;;;;;;;;;;;;;;;16.96;66.07;96304.63;10379101;28;97385;-58
2022/09/10 08:18:55;;;;;;;;;;;;;;;17.31;65.82;96307.41;10356443;28;96668;-58
2022/09/10 08:23:58;;;;;;;;;;;;;;;17.47;65.18;96309.00;10337816;28;96942;-58
2022/09/10 08:29:01;;;;;;;;;;;;;;;17.53;65.35;96308.25;10337349;28;96976;-58
2022/09/10 08:34:05;;;;;;;;;;;;;;;17.66;65.16;96312.81;10337103;28;96976;-58
2022/09/10 08:39:08;;;;;;;;;;;;;;;18.00;64.94;96308.66;10345165;28;96716;-58
2022/09/10 08:44:14;;;;;;;;;;;;;;;18.22;64.17;96311.22;10378231;28;96776;-58
2022/09/10 08:49:25;;;;;;;;;;;;;;;18.17;63.34;96310.97;10390495;28;97775;-58
2022/09/10 08:54:33;;;;;;;;;;;;;;;18.20;63.46;96302.66;10378782;28;97491;-58
2022/09/10 08:59:39;;;;;;;;;;;;;;;18.33;62.56;96302.75;10377932;28;96748;-58
2022/09/10 09:04:44;;;;;;;;;;;;;;;18.83;62.18;96311.34;10415609;28;96863;-58
2022/09/10 09:09:48;;;;;;;;;;;;;;;18.99;60.87;96314.69;10398704;27;97327;-58
2022/09/10 09:14:58;;;;;;;;;;;;;;;18.96;60.52;96309.78;10377637;28;96679;-57
2022/09/10 09:20:10;;;;;;;;;;;;;;;19.07;60.20;96303.91;10343490;28;98121;-58
2022/09/10 09:25:21;;;;;;;;;;;;;;;19.15;59.59;96302.91;10335919;28;96650;-57
2022/09/10 09:30:24;;;;;;;;;;;;;;;19.11;59.61;96297.22;10335322;28;96818;-57
2022/09/10 09:35:31;;;;;;;;;;;;;;;19.01;60.15;96302.06;10334768;28;96789;-58
2022/09/10 09:40:38;;;;;;;;;;;;;;;18.96;59.11;96293.91;10358786;28;96864;-59
2022/09/10 09:45:42;;;;;;;;;;;;;;;19.04;58.39;96296.38;10364543;28;96827;-58
2022/09/10 09:50:47;;;;;;;;;;;;;;;18.96;58.73;96296.53;10362279;28;97339;-58
2022/09/10 09:55:52;;;;;;;;;;;;;;;18.82;57.38;96299.09;10376449;28;96676;-58
2022/09/10 10:01:05;;;;;;;;;;;;;;;18.52;55.50;96292.50;10374725;28;96795;-58
2022/09/10 10:06:11;;;;;;;;;;;;;;;18.62;55.19;96287.63;10375503;28;96773;-58
2022/09/10 10:11:16;;;;;;;;;;;;;;;18.66;54.37;96289.69;10374458;28;96823;-58
2022/09/10 10:16:21;;;;;;;;;;;;;;;18.77;54.01;96269.78;10375606;28;96877;-58
2022/09/10 10:21:30;;;;;;;;;;;;;;;19.01;53.80;96263.16;10375203;28;96831;-58
2022/09/10 10:26:34;;;;;;;;;;;;;;;19.27;52.74;96269.53;10372002;28;96808;-59
2022/09/10 10:31:39;;;;;;;;;;;;;;;19.25;51.64;96256.47;10362866;28;96864;-58
2022/09/10 10:36:49;;;;;;;;;;;;;;;19.11;51.45;96254.84;10375427;28;97804;-58
2022/09/10 10:41:58;;;;;;;;;;;;;;;19.00;51.38;96250.13;10389626;28;98595;-58
2022/09/10 10:47:12;;;;;;;;;;;;;;;18.95;50.66;96252.53;10409478;28;97077;-57
2022/09/10 10:52:21;;;;;;;;;;;;;;;18.98;50.13;96260.91;10373491;28;96574;-58
2022/09/10 10:57:29;;;;;;;;;;;;;;;19.06;49.57;96257.28;10374470;28;97033;-57
2022/09/10 11:02:38;;;;;;;;;;;;;;;19.55;48.87;96256.09;10376750;28;96852;-58
2022/09/10 11:07:43;;;;;;;;;;;;;;;19.99;48.60;96251.19;10380491;28;96800;-58
2022/09/10 11:12:50;;;;;;;;;;;;;;;20.28;48.41;96249.09;10379157;28;96906;-58
2022/09/10 11:17:57;;;;;;;;;;;;;;;20.48;48.14;96246.41;10393433;28;97060;-58
2022/09/10 11:23:05;;;;;;;;;;;;;;;20.77;48.38;96252.22;10422745;27;96780;-58
2022/09/10 11:28:12;;;;;;;;;;;;;;;20.98;47.61;96248.41;10419811;28;96841;-58
2022/09/10 11:33:20;;;;;;;;;;;;;;;20.88;46.64;96259.53;10381203;28;96980;-59
2022/09/10 11:38:26;;;;;;;;;;;;;;;20.33;47.48;96247.44;10404942;28;96973;-58
2022/09/10 11:43:33;;;;;;;;;;;;;;;19.89;47.78;96261.44;10421256;28;96714;-58
2022/09/10 11:48:38;;;;;;;;;;;;;;;20.10;47.71;96260.38;10373460;27;97224;-58
2022/09/10 11:53:43;;;;;;;;;;;;;;;19.97;46.72;96271.78;10360304;28;99168;-58
2022/09/10 11:58:51;;;;;;;;;;;;;;;19.88;47.86;96265.09;10349524;28;96832;-59
2022/09/10 12:04:16;;;;;;;;;;;;;;;19.96;47.30;96268.34;10377743;28;97960;-58
2022/09/10 12:09:23;;;;;;;;;;;;;;;20.33;46.87;96262.56;10380724;28;97656;-58
2022/09/10 12:14:26;;;;;;;;;;;;;;;20.57;46.48;96267.16;10384363;28;96767;-58
2022/09/10 12:19:32;;;;;;;;;;;;;;;20.79;45.75;96258.13;10421484;28;97179;-58
2022/09/10 12:24:38;;;;;;;;;;;;;;;21.14;45.55;96255.91;10395381;28;96826;-58
2022/09/10 12:29:40;;;;;;;;;;;;;;;21.34;45.24;96252.28;10378608;28;96684;-58
2022/09/10 12:34:48;;;;;;;;;;;;;;;21.24;45.07;96252.75;10377803;28;96944;-58
2022/09/10 12:40:09;;;;;;;;;;;;;;;21.25;44.89;96254.41;10378020;28;96696;-59
2022/09/10 12:45:36;;;;;;;;;;;;;;;21.13;44.17;96251.59;10378129;28;96658;-59
2022/09/10 12:50:44;;;;;;;;;;;;;;;20.81;44.91;96248.94;10378101;28;97031;-58
2022/09/10 12:55:54;;;;;;;;;;;;;;;20.76;44.90;96256.72;10378037;28;97443;-58
2022/09/10 13:01:07;;;;;;;;;;;;;;;20.83;44.70;96246.06;10377962;28;96781;-58
2022/09/10 13:06:10;;;;;;;;;;;;;;;20.75;44.97;96250.59;10378244;28;96643;-58
2022/09/10 13:11:15;;;;;;;;;;;;;;;20.91;44.75;96248.44;10368756;28;96808;-58
2022/09/10 13:16:21;;;;;;;;;;;;;;;20.98;44.43;96249.25;10377831;28;96677;-58
2022/09/10 13:21:42;;;;;;;;;;;;;;;21.04;44.49;96243.06;10377298;28;96798;-58
2022/09/10 13:26:51;;;;;;;;;;;;;;;21.45;43.79;96243.59;10375012;28;96923;-58
2022/09/10 13:31:59;;;;;;;;;;;;;;;21.90;43.25;96245.31;10377024;28;96569;-58
2022/09/10 13:37:13;;;;;;;;;;;;;;;21.92;43.19;96243.25;10373976;28;96975;-58
2022/09/10 13:42:25;;;;;;;;;;;;;;;22.16;43.23;96242.41;10341312;28;97286;-59
2022/09/10 13:47:33;;;;;;;;;;;;;;;22.04;43.33;96239.66;10381989;28;96753;-58
2022/09/10 13:52:37;;;;;;;;;;;;;;;21.86;44.00;96240.41;10401862;28;96814;-60
2022/09/10 13:57:41;;;;;;;;;;;;;;;22.12;43.73;96233.22;10368754;28;96779;-59
2022/09/10 14:02:46;;;;;;;;;;;;;;;22.30;43.70;96234.25;10356390;28;96917;-58
2022/09/10 14:07:49;;;;;;;;;;;;;;;22.26;43.84;96233.88;10376383;28;96895;-58
2022/09/10 14:12:52;;;;;;;;;;;;;;;22.33;44.19;96228.50;10369062;28;96808;-58
2022/09/10 14:17:57;;;;;;;;;;;;;;;22.01;44.41;96228.66;10381417;28;96651;-59
2022/09/10 14:23:01;;;;;;;;;;;;;;;21.78;44.67;96227.44;10332122;28;99288;-60
2022/09/10 14:28:24;;;;;;;;;;;;;;;21.62;44.53;96228.81;10366071;28;97075;-58
2022/09/10 14:33:32;;;;;;;;;;;;;;;21.39;45.08;96224.03;10365371;28;97018;-58
2022/09/10 14:38:36;;;;;;;;;;;;;;;21.41;44.97;96224.63;10353329;28;96821;-58
2022/09/10 14:43:39;;;;;;;;;;;;;;;21.45;45.09;96231.16;10372967;28;97218;-58
2022/09/10 14:49:01;;;;;;;;;;;;;;;21.52;44.82;96225.78;10377775;28;98078;-59
2022/09/10 14:54:04;;;;;;;;;;;;;;;21.86;44.46;96221.81;10399518;27;96785;-58
2022/09/10 14:59:12;;;;;;;;;;;;;;;21.69;44.74;96229.56;10355919;28;96929;-60
2022/09/10 15:04:17;;;;;;;;;;;;;;;21.48;45.04;96219.25;10351268;28;97983;-59
2022/09/10 15:09:20;;;;;;;;;;;;;;;21.38;44.93;96221.59;10354858;28;97135;-59
2022/09/10 15:14:24;;;;;;;;;;;;;;;21.45;44.82;96215.22;10371901;28;96912;-60
2022/09/10 15:19:28;;;;;;;;;;;;;;;21.49;45.05;96210.28;10350236;28;98023;-59
2022/09/10 15:24:31;;;;;;;;;;;;;;;21.39;45.11;96207.28;10374989;28;96811;-58
2022/09/10 15:29:53;;;;;;;;;;;;;;;20.92;45.51;96207.59;10369407;28;97245;-59
2022/09/10 15:34:57;;;;;;;;;;;;;;;20.68;45.91;96201.97;10367859;28;97668;-60
2022/09/10 15:40:00;;;;;;;;;;;;;;;20.64;45.88;96200.78;10352219;28;96975;-58
2022/09/10 15:45:03;;;;;;;;;;;;;;;20.65;45.61;96201.59;10338667;28;97168;-58
2022/09/10 15:50:08;;;;;;;;;;;;;;;20.74;45.53;96206.47;10391069;28;97424;-59
2022/09/10 15:55:11;;;;;;;;;;;;;;;20.88;45.23;96195.78;10378933;28;96688;-59
2022/09/10 16:00:14;;;;;;;;;;;;;;;21.31;44.66;96200.38;10393971;28;96749;-59
2022/09/10 16:05:19;;;;;;;;;;;;;;;22.00;43.59;96198.56;10421529;27;98129;-60
2022/09/10 16:10:22;;;;;;;;;;;;;;;22.96;42.75;96201.50;10387087;27;97038;-60
2022/09/10 16:15:25;;;;;;;;;;;;;;;23.52;42.25;96193.31;10379231;28;97544;-59
2022/09/10 16:20:29;;;;;;;;;;;;;;;23.98;41.85;96194.31;10368165;28;96948;-59
2022/09/10 16:25:32;;;;;;;;;;;;;;;24.34;41.42;96197.78;10375814;28;96898;-59
2022/09/10 16:30:35;;;;;;;;;;;;;;;24.35;41.19;96183.41;10385776;28;97088;-59
2022/09/10 16:35:39;;;;;;;;;;;;;;;22.95;42.77;96191.06;10376011;28;96751;-61
2022/09/10 16:40:41;;;;;;;;;;;;;;;22.15;43.58;96187.56;10374268;28;97502;-59
2022/09/10 16:45:49;;;;;;;;;;;;;;;21.39;44.50;96189.50;10378917;28;97044;-59
2022/09/10 16:50:53;;;;;;;;;;;;;;;20.90;44.71;96191.06;10392096;28;96730;-59
2022/09/10 16:56:00;;;;;;;;;;;;;;;20.74;44.86;96185.25;10411869;28;96829;-59
2022/09/10 17:01:03;;;;;;;;;;;;;;;20.52;44.74;96197.97;10379252;28;96897;-58
2022/09/10 17:06:12;;;;;;;;;;;;;;;20.45;44.57;96197.19;10415357;28;96916;-59
2022/09/10 17:11:16;;;;;;;;;;;;;;;20.11;45.22;96193.03;10376520;28;96780;-59
2022/09/10 17:16:23;;;;;;;;;;;;;;;20.04;44.94;96198.34;10389646;28;96794;-59
2022/09/10 17:21:28;;;;;;;;;;;;;;;19.88;45.05;96185.56;10418248;28;96785;-58
2022/09/10 17:26:31;;;;;;;;;;;;;;;19.79;45.50;96193.69;10419846;27;96706;-59
2022/09/10 17:31:34;;;;;;;;;;;;;;;19.71;45.57;96201.03;10383301;28;98138;-59
2022/09/10 17:36:39;;;;;;;;;;;;;;;19.51;45.74;96191.28;10403850;28;96814;-59
2022/09/10 17:41:43;;;;;;;;;;;;;;;19.13;46.66;96210.44;10385513;28;98356;-59
2022/09/10 17:46:45;;;;;;;;;;;;;;;18.79;46.73;96201.56;10392012;28;96958;-58
2022/09/10 17:51:49;;;;;;;;;;;;;;;18.67;47.36;96196.06;10376316;28;96750;-58
2022/09/10 17:56:52;;;;;;;;;;;;;;;18.64;47.00;96198.31;10378240;27;96937;-58
2022/09/10 18:01:56;;;;;;;;;;;;;;;18.57;46.71;96200.09;10380217;28;96811;-58
2022/09/10 18:07:00;;;;;;;;;;;;;;;18.59;46.66;96203.38;10380711;28;97847;-59
2022/09/10 18:12:03;;;;;;;;;;;;;;;18.33;46.99;96199.63;10383884;27;96779;-58
2022/09/10 18:17:05;;;;;;;;;;;;;;;18.23;47.61;96225.59;10386900;28;96846;-59
2022/09/10 18:22:10;;;;;;;;;;;;;;;18.11;47.45;96225.34;10383901;28;96820;-58
2022/09/10 18:27:12;;;;;;;;;;;;;;;18.02;47.74;96231.81;10414907;28;96712;-59
2022/09/10 18:32:15;;;;;;;;;;;;;;;18.00;47.63;96232.00;10338974;28;96908;-59
2022/09/10 18:37:20;;;;;;;;;;;;;;;18.12;47.52;96232.28;10379494;28;98319;-59
2022/09/10 18:42:23;;;;;;;;;;;;;;;18.15;47.23;96238.97;10402888;27;97523;-58
2022/09/10 18:47:26;;;;;;;;;;;;;;;18.13;47.85;96241.81;10374227;28;97200;-58
2022/09/10 18:52:47;;;;;;;;;;;;;;;18.20;47.43;96244.50;10402677;28;98468;-58
2022/09/10 18:57:50;;;;;;;;;;;;;;;18.16;47.43;96253.84;10374812;28;96756;-58
2022/09/10 19:02:53;;;;;;;;;;;;;;;17.90;48.31;96257.94;10365124;28;96690;-58
2022/09/10 19:07:57;;;;;;;;;;;;;;;17.85;47.95;96266.44;10400446;28;96738;-58
2022/09/10 19:13:00;;;;;;;;;;;;;;;17.90;47.84;96273.81;10348612;28;97183;-59
2022/09/10 19:18:02;;;;;;;;;;;;;;;17.85;47.43;96281.50;10368805;28;96923;-59
2022/09/10 19:23:09;;;;;;;;;;;;;;;17.84;48.18;96279.84;10374879;28;96756;-59
2022/09/10 19:28:12;;;;;;;;;;;;;;;17.91;48.08;96286.03;10411926;28;96787;-59
2022/09/10 19:33:15;;;;;;;;;;;;;;;17.88;48.02;96289.03;10389985;28;96781;-58
2022/09/10 19:38:19;;;;;;;;;;;;;;;17.77;47.71;96285.09;10375782;28;96719;-59
2022/09/10 19:43:39;;;;;;;;;;;;;;;17.77;48.27;96285.09;10351936;28;97240;-59
2022/09/10 19:48:41;;;;;;;;;;;;;;;17.72;48.18;96293.56;10377761;28;97642;-58
2022/09/10 19:53:45;;;;;;;;;;;;;;;17.65;48.26;96290.06;10380015;28;97841;-58
2022/09/10 19:58:49;;;;;;;;;;;;;;;17.67;48.25;96292.50;10372019;28;97368;-58
2022/09/10 20:03:52;;;;;;;;;;;;;;;17.53;48.22;96297.69;10354399;28;96681;-59
2022/09/10 20:08:57;;;;;;;;;;;;;;;17.53;48.64;96299.50;10379851;28;98092;-58
2022/09/10 20:14:01;;;;;;;;;;;;;;;17.54;48.71;96304.59;10378236;28;96927;-58
2022/09/10 20:19:04;;;;;;;;;;;;;;;17.57;47.82;96303.41;10379099;28;98180;-59
2022/09/10 20:24:08;;;;;;;;;;;;;;;17.58;48.37;96302.41;10379272;28;96832;-59
2022/09/10 20:29:12;;;;;;;;;;;;;;;17.54;48.87;96298.50;10376942;28;96762;-59
2022/09/10 20:34:16;;;;;;;;;;;;;;;17.49;49.11;96292.97;10378543;28;96821;-59
2022/09/10 20:39:23;;;;;;;;;;;;;;;17.56;48.15;96294.66;10378665;28;96948;-59
2022/09/10 20:44:26;;;;;;;;;;;;;;;17.66;48.25;96299.59;10378125;28;96916;-58
2022/09/10 20:49:29;;;;;;;;;;;;;;;17.52;49.05;96287.31;10379181;28;96734;-59
2022/09/10 20:54:33;;;;;;;;;;;;;;;17.43;48.65;96285.81;10378329;28;97266;-58
2022/09/10 20:59:35;;;;;;;;;;;;;;;17.43;48.75;96291.09;10359346;28;96845;-59
2022/09/10 21:04:40;;;;;;;;;;;;;;;17.32;49.56;96303.78;10358322;28;96851;-59
2022/09/10 21:09:44;;;;;;;;;;;;;;;17.18;49.18;96302.03;10404872;28;96757;-58
2022/09/10 21:14:47;;;;;;;;;;;;;;;16.92;50.02;96311.28;10379967;28;96719;-58
2022/09/10 21:19:49;;;;;;;;;;;;;;;16.78;50.59;96307.69;10419155;28;96674;-59
2022/09/10 21:24:53;;;;;;;;;;;;;;;16.75;50.30;96292.22;10418470;27;96643;-59
2022/09/10 21:29:56;;;;;;;;;;;;;;;16.63;50.32;96305.03;10396919;27;96741;-60
2022/09/10 21:34:59;;;;;;;;;;;;;;;16.48;50.54;96321.88;10377264;28;96750;-59
2022/09/10 21:40:03;;;;;;;;;;;;;;;16.32;50.66;96310.50;10376825;28;96829;-59
2022/09/10 21:45:06;;;;;;;;;;;;;;;16.19;51.00;96319.06;10396520;27;97003;-58
2022/09/10 21:50:09;;;;;;;;;;;;;;;16.11;51.24;96331.50;10366808;28;96838;-59
2022/09/10 21:55:13;;;;;;;;;;;;;;;16.10;51.15;96335.94;10366120;28;97290;-58
2022/09/10 22:00:17;;;;;;;;;;;;;;;16.05;51.23;96338.28;10386739;27;96682;-59
2022/09/10 22:05:20;;;;;;;;;;;;;;;15.81;51.48;96332.25;10409784;28;97675;-59
2022/09/10 22:10:25;;;;;;;;;;;;;;;15.72;51.89;96337.75;10397034;27;97137;-58
2022/09/10 22:15:28;;;;;;;;;;;;;;;15.68;51.64;96329.41;10375420;28;96741;-58
2022/09/10 22:20:32;;;;;;;;;;;;;;;15.52;52.01;96338.22;10375532;28;96818;-58
2022/09/10 22:25:36;;;;;;;;;;;;;;;15.31;52.83;96339.69;10342814;28;97077;-59
2022/09/10 22:30:38;;;;;;;;;;;;;;;15.18;52.47;96346.50;10334731;28;97011;-60
2022/09/10 22:35:41;;;;;;;;;;;;;;;14.99;53.10;96347.75;10333581;28;96712;-58
2022/09/10 22:40:46;;;;;;;;;;;;;;;14.79;53.53;96347.38;10334034;28;97437;-58
2022/09/10 22:45:48;;;;;;;;;;;;;;;14.66;53.63;96346.13;10343692;28;97033;-58
2022/09/10 22:50:51;;;;;;;;;;;;;;;14.49;53.62;96355.88;10379078;28;96737;-58
2022/09/10 22:55:55;;;;;;;;;;;;;;;14.30;54.39;96353.59;10369204;28;97476;-59
2022/09/10 23:01:02;;;;;;;;;;;;;;;14.20;54.30;96353.78;10376024;28;96989;-58
2022/09/10 23:06:05;;;;;;;;;;;;;;;14.12;55.10;96356.41;10390952;27;97278;-59
2022/09/10 23:11:11;;;;;;;;;;;;;;;14.02;54.54;96361.03;10363243;28;98208;-58
2022/09/10 23:16:14;;;;;;;;;;;;;;;13.86;55.18;96354.78;10373487;28;96991;-59
2022/09/10 23:21:17;;;;;;;;;;;;;;;13.84;55.26;96348.09;10373765;28;96795;-60
2022/09/10 23:26:22;;;;;;;;;;;;;;;13.78;54.70;96346.94;10373880;28;96731;-59
2022/09/10 23:31:25;;;;;;;;;;;;;;;13.69;55.39;96347.91;10373957;28;96849;-59
2022/09/10 23:36:30;;;;;;;;;;;;;;;13.62;55.68;96361.72;10371754;28;96746;-58
2022/09/10 23:41:34;;;;;;;;;;;;;;;13.39;56.03;96355.44;10363259;28;96801;-58
2022/09/10 23:46:37;;;;;;;;;;;;;;;13.20;56.58;96354.78;10331842;28;96704;-58
2022/09/10 23:51:39;;;;;;;;;;;;;;;13.11;56.41;96353.09;10331780;28;97011;-58
2022/09/10 23:56:44;;;;;;;;;;;;;;;13.00;56.28;96345.56;10331701;28;97013;-59
